Aviation Digital Data Service (ADDS)

Output produced by METARs form (1251 UTC 21 February 2018)
found at http://www.aviationweather.gov/adds/metars/
 
TAF VCBI 200940Z 2012/2118 35010KT 9999 FEW018 TX32/2107Z TN22/2100Z 
     BECMG 2015/2017 03010KT